RoSS Sea — WDE3122 — position and weather

sailwx.info

Track history (hours):
 
Tides and Currents Weather Stations Pressure Air Temp Water Temp Dewpoint Dewpoint Depression Visibility Wind Speed Wind Dir Waves Ship Positions

RoSS Sea

Owner: Kirby Inland Marine, LP, Houston, TX. More information available from US FCC via Universal Licensing System and Coast Guard Vessel Documentation Center.

Last reported at 2016-Jul-23 13:11 UTC. Time now 2016-Jul-23 15:06 UTC.
Position N 40°39' W 074°10'.

Length 30 m; draft 5 m.

Type: Towing. MMSI: 367334360.

Date/timePositionNaut miles runAvg speedWind from/ knotsBaromVisibWave heightAir tempDewpointWater temp
2016-Jul-23 13:11N 40°39' W 074°10'0 0.0
2016-Jul-23 12:29N 40°39' W 074°10'0 0.0
2016-Jul-23 09:33N 40°39' W 074°10'0 0.0
2016-Jul-22 20:32N 40°38' W 074°10'0 0.0
2016-Jul-22 19:33N 40°38' W 074°10'0 0.0
2016-Jul-22 18:33N 40°38' W 074°10'0 0.0
2016-Jul-22 17:32N 40°38' W 074°10'5 5.4
2016-Jul-22 16:33N 40°40' W 074°03'5 5.0
2016-Jul-22 15:33N 40°38' W 074°09'0 0.3
2016-Jul-22 14:33N 40°38' W 074°10'0 0.0
2016-Jul-22 13:33N 40°38' W 074°10'0 0.0
2016-Jul-22 12:33N 40°38' W 074°10'0 0.0
2016-Jul-22 11:33N 40°38' W 074°10'0 0.0
2016-Jul-22 10:33N 40°38' W 074°10'0 0.0
2016-Jul-22 09:33N 40°38' W 074°10'0 0.0
2016-Jul-22 08:28N 40°38' W 074°10'0 0.0
2016-Jul-22 07:33N 40°38' W 074°10'0 0.0
2016-Jul-22 05:33N 40°38' W 074°10'0 0.0
2016-Jul-22 04:33N 40°38' W 074°10'0 0.0
2016-Jul-22 03:33N 40°38' W 074°10'0 0.0
2016-Jul-22 02:33N 40°38' W 074°10'0 0.0
2016-Jul-22 01:33N 40°38' W 074°10'0 0.0
2016-Jul-22 00:18N 40°38' W 074°10'0 0.0
2016-Jul-21 23:33N 40°38' W 074°10'0 0.0
2016-Jul-21 22:33N 40°38' W 074°10'0 0.0
2016-Jul-21 21:33N 40°38' W 074°10'0 0.0
2016-Jul-21 20:33N 40°38' W 074°10'0 0.0
2016-Jul-21 19:33N 40°38' W 074°10'2 2.3
2016-Jul-21 18:32N 40°39' W 074°07'2 1.8
2016-Jul-21 17:33N 40°39' W 074°05'4 0.9
2016-Jul-21 13:08N 40°39' W 074°10'5 8.2
2016-Jul-21 12:33N 40°38' W 074°04'2 2.1
2016-Jul-21 11:33N 40°39' W 074°06'3 0.3
2016-Jul-21 00:28N 40°38' W 074°10'0 0.0
2016-Jul-20 16:33N 40°38' W 074°10'0 0.0
2016-Jul-20 15:33N 40°38' W 074°10'0 0.0
2016-Jul-20 14:33N 40°38' W 074°10'0 0.0
2016-Jul-20 13:27N 40°38' W 074°10'0 0.0
2016-Jul-20 12:33N 40°38' W 074°10'0 0.0
2016-Jul-20 11:15N 40°38' W 074°10'0 0.0
2016-Jul-20 10:15N 40°38' W 074°10'0 0.0
2016-Jul-20 08:33N 40°38' W 074°10'0 0.0
2016-Jul-20 07:33N 40°38' W 074°10'0 0.0
2016-Jul-20 01:30N 40°38' W 074°10'0 0.0
2016-Jul-18 15:21N 40°38' W 074°10'0 0.0
2016-Jul-18 12:27N 40°38' W 074°10'0 0.0
2016-Jul-18 10:27N 40°38' W 074°10'0 0.0
2016-Jul-18 09:21N 40°38' W 074°10'0 0.0
2016-Jul-18 08:30N 40°38' W 074°10'0 0.0
2016-Jul-18 04:09N 40°38' W 074°10'0 0.0
2016-Jul-18 03:33N 40°38' W 074°10'0 0.0
2016-Jul-17 01:27N 40°38' W 074°10'0 0.0
2016-Jul-17 00:33N 40°38' W 074°10'0 0.0
2016-Jul-16 21:27N 40°38' W 074°10'0 0.0
2016-Jul-16 17:33N 40°38' W 074°10'0 0.0
2016-Jul-15 17:27N 40°38' W 074°10'0 0.0
2016-Jul-15 09:21N 40°38' W 074°10'0 0.0
2016-Jul-15 08:15N 40°38' W 074°10'0 0.0
2016-Jul-15 07:24N 40°38' W 074°10'0 0.0
2016-Jul-15 02:15N 40°38' W 074°10'0 0.0
2016-Jul-13 16:33N 40°38' W 074°10'0 0.0
2016-Jul-13 15:27N 40°38' W 074°10'0 0.0
2016-Jul-13 14:33N 40°38' W 074°10'  
Track history (hours):
 
Tides and Currents Weather Stations Pressure Air Temp Water Temp Dewpoint Dewpoint Depression Visibility Wind Speed Wind Dir Waves Ship Positions

RoSS Sea

Owner: Kirby Inland Marine, LP, Houston, TX. More information available from US FCC via Universal Licensing System and Coast Guard Vessel Documentation Center.

Last reported at 2016-Jul-23 13:11 UTC. Time now 2016-Jul-23 15:06 UTC.
Position N 40°39' W 074°10'.

Length 30 m; draft 5 m.

Type: Towing. MMSI: 367334360.

Date/timePositionNaut miles runAvg speedWind from/ knotsBaromVisibWave heightAir tempDewpointWater temp
2016-Jul-23 13:11N 40°39' W 074°10'0 0.0
2016-Jul-23 12:29N 40°39' W 074°10'0 0.0
2016-Jul-23 09:33N 40°39' W 074°10'0 0.0
2016-Jul-22 20:32N 40°38' W 074°10'0 0.0
2016-Jul-22 19:33N 40°38' W 074°10'0 0.0
2016-Jul-22 18:33N 40°38' W 074°10'0 0.0
2016-Jul-22 17:32N 40°38' W 074°10'5 5.4
2016-Jul-22 16:33N 40°40' W 074°03'5 5.0
2016-Jul-22 15:33N 40°38' W 074°09'0 0.3
2016-Jul-22 14:33N 40°38' W 074°10'0 0.0
2016-Jul-22 13:33N 40°38' W 074°10'0 0.0
2016-Jul-22 12:33N 40°38' W 074°10'0 0.0
2016-Jul-22 11:33N 40°38' W 074°10'0 0.0
2016-Jul-22 10:33N 40°38' W 074°10'0 0.0
2016-Jul-22 09:33N 40°38' W 074°10'0 0.0
2016-Jul-22 08:28N 40°38' W 074°10'0 0.0
2016-Jul-22 07:33N 40°38' W 074°10'0 0.0
2016-Jul-22 05:33N 40°38' W 074°10'0 0.0
2016-Jul-22 04:33N 40°38' W 074°10'0 0.0
2016-Jul-22 03:33N 40°38' W 074°10'0 0.0
2016-Jul-22 02:33N 40°38' W 074°10'0 0.0
2016-Jul-22 01:33N 40°38' W 074°10'0 0.0
2016-Jul-22 00:18N 40°38' W 074°10'0 0.0
2016-Jul-21 23:33N 40°38' W 074°10'0 0.0
2016-Jul-21 22:33N 40°38' W 074°10'0 0.0
2016-Jul-21 21:33N 40°38' W 074°10'0 0.0
2016-Jul-21 20:33N 40°38' W 074°10'0 0.0
2016-Jul-21 19:33N 40°38' W 074°10'2 2.3
2016-Jul-21 18:32N 40°39' W 074°07'2 1.8
2016-Jul-21 17:33N 40°39' W 074°05'4 0.9
2016-Jul-21 13:08N 40°39' W 074°10'5 8.2
2016-Jul-21 12:33N 40°38' W 074°04'2 2.1
2016-Jul-21 11:33N 40°39' W 074°06'3 0.3
2016-Jul-21 00:28N 40°38' W 074°10'0 0.0
2016-Jul-20 16:33N 40°38' W 074°10'0 0.0
2016-Jul-20 15:33N 40°38' W 074°10'0 0.0
2016-Jul-20 14:33N 40°38' W 074°10'0 0.0
2016-Jul-20 13:27N 40°38' W 074°10'0 0.0
2016-Jul-20 12:33N 40°38' W 074°10'0 0.0
2016-Jul-20 11:15N 40°38' W 074°10'0 0.0
2016-Jul-20 10:15N 40°38' W 074°10'0 0.0
2016-Jul-20 08:33N 40°38' W 074°10'0 0.0
2016-Jul-20 07:33N 40°38' W 074°10'0 0.0
2016-Jul-20 01:30N 40°38' W 074°10'0 0.0
2016-Jul-18 15:21N 40°38' W 074°10'0 0.0
2016-Jul-18 12:27N 40°38' W 074°10'0 0.0
2016-Jul-18 10:27N 40°38' W 074°10'0 0.0
2016-Jul-18 09:21N 40°38' W 074°10'0 0.0
2016-Jul-18 08:30N 40°38' W 074°10'0 0.0
2016-Jul-18 04:09N 40°38' W 074°10'0 0.0
2016-Jul-18 03:33N 40°38' W 074°10'0 0.0
2016-Jul-17 01:27N 40°38' W 074°10'0 0.0
2016-Jul-17 00:33N 40°38' W 074°10'0 0.0
2016-Jul-16 21:27N 40°38' W 074°10'0 0.0
2016-Jul-16 17:33N 40°38' W 074°10'0 0.0
2016-Jul-15 17:27N 40°38' W 074°10'0 0.0
2016-Jul-15 09:21N 40°38' W 074°10'0 0.0
2016-Jul-15 08:15N 40°38' W 074°10'0 0.0
2016-Jul-15 07:24N 40°38' W 074°10'0 0.0
2016-Jul-15 02:15N 40°38' W 074°10'0 0.0
2016-Jul-13 16:33N 40°38' W 074°10'0 0.0
2016-Jul-13 15:27N 40°38' W 074°10'0 0.0
2016-Jul-13 14:33N 40°38' W 074°10'  

Dump ship's entire track history